Time;durP1;ratioP1;P1;durP2;ratioP2;P2;SDS_P1;SDS_P2;PMS_P1;PMS_P2;Temp;Humidity;BMP_temperature;BMP_pressure;BME280_temperature;BME280_humidity;BME280_pressure;Samples;Min_cycle;Max_cycle;Signal;HPM_P1;HPM_P2
2021/08/20 00:00:11;;;;;;;6.10;4.70;;;16.00;1.00;;;;;;5065348;28;20186;-74
2021/08/20 00:02:41;;;;;;;8.80;5.43;;;16.00;1.00;;;;;;5068283;28;20185;-75
2021/08/20 00:05:08;;;;;;;6.70;5.13;;;16.00;1.00;;;;;;5067204;28;20526;-74
2021/08/20 00:07:34;;;;;;;10.70;5.93;;;16.00;1.00;;;;;;5065459;28;20278;-74
2021/08/20 00:10:00;;;;;;;7.03;5.23;;;16.00;1.00;;;;;;5064944;28;20523;-75
2021/08/20 00:12:27;;;;;;;8.37;6.73;;;16.10;1.00;;;;;;5064576;28;20181;-74
2021/08/20 00:14:56;;;;;;;8.50;5.23;;;16.20;1.00;;;;;;5039064;28;20428;-73
2021/08/20 00:17:23;;;;;;;6.60;5.17;;;16.10;1.00;;;;;;5068612;28;20443;-75
2021/08/20 00:19:50;;;;;;;6.07;5.00;;;16.00;1.00;;;;;;5070782;28;21017;-74
2021/08/20 00:22:15;;;;;;;10.13;5.53;;;16.00;1.00;;;;;;5072829;28;20452;-74
2021/08/20 00:24:41;;;;;;;8.60;5.80;;;15.90;1.00;;;;;;5073224;28;20440;-74
2021/08/20 00:27:07;;;;;;;7.83;5.60;;;15.90;1.00;;;;;;5068973;28;20189;-74
2021/08/20 00:29:33;;;;;;;5.37;4.20;;;16.00;1.00;;;;;;5054923;28;20472;-74
2021/08/20 00:31:59;;;;;;;5.07;4.50;;;16.00;1.00;;;;;;5069334;28;20475;-74
2021/08/20 00:34:26;;;;;;;7.53;5.43;;;16.20;1.00;;;;;;5072280;28;20446;-73
2021/08/20 00:36:51;;;;;;;10.80;5.30;;;16.20;1.00;;;;;;5068576;28;20439;-75
2021/08/20 00:39:18;;;;;;;7.87;6.00;;;16.10;1.00;;;;;;5069531;28;20247;-74
2021/08/20 00:41:44;;;;;;;7.27;5.23;;;16.10;1.00;;;;;;5069312;28;20194;-73
2021/08/20 00:44:11;;;;;;;7.73;5.50;;;16.00;1.00;;;;;;5087595;28;20436;-74
2021/08/20 00:46:39;;;;;;;6.73;4.40;;;16.20;1.00;;;;;;5070468;28;20874;-73
2021/08/20 00:49:05;;;;;;;6.23;5.13;;;16.30;1.00;;;;;;5074986;28;20517;-73
2021/08/20 00:51:35;;;;;;;10.07;5.77;;;16.50;1.00;;;;;;5068514;28;20523;-74
2021/08/20 00:54:02;;;;;;;8.30;5.67;;;16.70;1.00;;;;;;5075367;28;20433;-73
2021/08/20 00:56:28;;;;;;;4.83;4.20;;;16.60;1.00;;;;;;5072332;28;20512;-73
2021/08/20 00:58:54;;;;;;;7.60;5.20;;;16.50;1.00;;;;;;5071473;28;20478;-74
2021/08/20 01:01:20;;;;;;;6.07;4.63;;;16.50;1.00;;;;;;5071300;28;21043;-74
2021/08/20 01:03:46;;;;;;;8.73;5.03;;;16.40;1.00;;;;;;5075608;28;20478;-74
2021/08/20 01:06:13;;;;;;;9.63;4.80;;;16.30;1.00;;;;;;5067828;28;20879;-73
2021/08/20 01:08:39;;;;;;;5.57;5.00;;;16.30;1.00;;;;;;5071550;28;20512;-74
2021/08/20 01:11:08;;;;;;;4.93;3.80;;;16.50;1.00;;;;;;5069425;28;20600;-74
2021/08/20 01:13:37;;;;;;;5.63;4.60;;;16.60;1.00;;;;;;5075344;28;20435;-74
2021/08/20 01:16:04;;;;;;;9.20;4.77;;;16.40;1.00;;;;;;5073343;28;20808;-74
2021/08/20 01:18:35;;;;;;;6.50;4.87;;;16.50;1.00;;;;;;5071583;28;20450;-74
2021/08/20 01:21:07;;;;;;;5.50;4.63;;;16.50;1.00;;;;;;5083918;28;20447;-74
2021/08/20 01:23:33;;;;;;;4.90;4.37;;;16.50;1.00;;;;;;5072394;28;20445;-73
2021/08/20 01:25:59;;;;;;;6.30;5.10;;;16.30;1.00;;;;;;5071079;28;21345;-73
2021/08/20 01:28:27;;;;;;;5.63;4.60;;;16.20;1.00;;;;;;5073420;28;20457;-73
2021/08/20 01:31:04;;;;;;;7.83;5.33;;;16.20;1.00;;;;;;5068780;28;20471;-75
2021/08/20 01:33:31;;;;;;;6.80;5.50;;;16.10;1.00;;;;;;5055054;28;20441;-73
2021/08/20 01:35:57;;;;;;;9.17;5.17;;;16.10;1.00;;;;;;5058998;28;20440;-74
2021/08/20 01:38:24;;;;;;;6.30;5.70;;;16.00;1.00;;;;;;5057817;28;20440;-74
2021/08/20 01:40:51;;;;;;;8.77;5.37;;;16.30;1.00;;;;;;5053551;28;21083;-73
2021/08/20 01:43:17;;;;;;;5.47;4.90;;;16.10;1.00;;;;;;5054957;28;20488;-73
2021/08/20 01:45:45;;;;;;;6.90;4.50;;;16.20;1.00;;;;;;5051829;28;20440;-73
2021/08/20 01:48:11;;;;;;;6.37;4.77;;;16.10;1.00;;;;;;5059785;28;20798;-73
2021/08/20 01:50:39;;;;;;;7.10;5.80;;;16.00;1.00;;;;;;5069716;28;20566;-73
2021/08/20 01:53:13;;;;;;;7.50;4.63;;;15.80;1.00;;;;;;5066811;28;20447;-73
2021/08/20 01:55:41;;;;;;;8.70;4.83;;;15.70;1.00;;;;;;5049059;28;20469;-73
2021/08/20 01:58:07;;;;;;;8.70;5.17;;;15.80;1.00;;;;;;5069237;28;20436;-73
2021/08/20 02:00:33;;;;;;;7.50;5.13;;;15.70;1.00;;;;;;5051410;28;20448;-73
2021/08/20 02:03:00;;;;;;;8.30;5.53;;;15.70;1.00;;;;;;5054289;28;20452;-73
2021/08/20 02:05:25;;;;;;;10.20;5.43;;;15.70;1.00;;;;;;5055208;28;20436;-73
2021/08/20 02:07:51;;;;;;;11.00;5.60;;;15.80;1.00;;;;;;5055784;28;20462;-73
2021/08/20 02:10:21;;;;;;;8.67;5.60;;;15.80;1.00;;;;;;5050637;28;20647;-74
2021/08/20 02:12:50;;;;;;;11.10;5.67;;;15.80;1.00;;;;;;5051541;28;20440;-74
2021/08/20 02:15:16;;;;;;;6.27;5.20;;;15.90;1.00;;;;;;5051682;28;20433;-73
2021/08/20 02:17:42;;;;;;;8.47;5.63;;;16.10;1.00;;;;;;5064998;28;20472;-74
2021/08/20 02:20:09;;;;;;;6.60;5.10;;;16.30;1.00;;;;;;5050296;28;20444;-73
2021/08/20 02:22:35;;;;;;;8.60;6.60;;;16.50;1.00;;;;;;5070441;28;20531;-73
2021/08/20 02:25:02;;;;;;;18.23;6.07;;;16.20;1.00;;;;;;5070079;28;20440;-74
2021/08/20 02:27:28;;;;;;;7.80;5.67;;;16.20;1.00;;;;;;5052068;28;20464;-73
2021/08/20 02:29:58;;;;;;;9.23;7.37;;;16.50;1.00;;;;;;5063063;28;20463;-74
2021/08/20 02:32:24;;;;;;;12.37;8.47;;;16.30;1.00;;;;;;5071225;28;21807;-73
2021/08/20 02:34:50;;;;;;;8.10;6.87;;;16.20;1.00;;;;;;5054008;28;20182;-73
2021/08/20 02:37:15;;;;;;;13.87;10.03;;;16.30;1.00;;;;;;5066078;28;20181;-74
2021/08/20 02:39:41;;;;;;;17.07;11.27;;;16.20;1.00;;;;;;5071737;28;20178;-74
2021/08/20 02:42:07;;;;;;;16.17;12.60;;;16.20;1.00;;;;;;5068687;28;20452;-73
2021/08/20 02:44:36;;;;;;;14.10;12.10;;;16.20;1.00;;;;;;5071578;28;20259;-74
2021/08/20 02:47:02;;;;;;;13.40;12.00;;;16.10;1.00;;;;;;5066505;28;20450;-73
2021/08/20 02:49:29;;;;;;;12.73;10.17;;;16.00;1.00;;;;;;5072922;28;20475;-73
2021/08/20 02:51:54;;;;;;;18.33;12.70;;;16.20;1.00;;;;;;5072145;28;21064;-74
2021/08/20 02:54:25;;;;;;;13.50;10.60;;;16.30;1.00;;;;;;5068128;28;21395;-74
2021/08/20 02:56:51;;;;;;;15.43;12.10;;;16.20;1.00;;;;;;5068077;28;20461;-74
2021/08/20 02:59:19;;;;;;;15.50;13.90;;;16.20;1.00;;;;;;5072828;28;20519;-73
2021/08/20 03:01:49;;;;;;;16.17;14.13;;;16.10;1.00;;;;;;5071792;28;20444;-73
2021/08/20 03:04:16;;;;;;;17.20;13.20;;;15.90;1.00;;;;;;5065858;28;21189;-73
2021/08/20 03:06:43;;;;;;;21.53;13.30;;;16.10;1.00;;;;;;5067169;28;20809;-74
2021/08/20 03:09:18;;;;;;;20.80;16.60;;;16.30;1.00;;;;;;5070070;28;20437;-73
2021/08/20 03:11:48;;;;;;;20.33;17.80;;;16.30;1.00;;;;;;5082735;28;20468;-72
2021/08/20 03:14:16;;;;;;;19.00;15.90;;;16.20;1.00;;;;;;5074377;28;20508;-73
2021/08/20 03:16:43;;;;;;;19.07;15.33;;;16.20;1.00;;;;;;5068982;28;20526;-73
2021/08/20 03:19:09;;;;;;;16.07;12.63;;;16.20;1.00;;;;;;5069579;28;20435;-73
2021/08/20 03:21:39;;;;;;;17.60;14.43;;;16.20;1.00;;;;;;5070972;28;20443;-72
2021/08/20 03:24:05;;;;;;;18.93;15.03;;;16.10;1.00;;;;;;5071502;28;20453;-73
2021/08/20 03:26:33;;;;;;;18.93;15.43;;;15.80;1.00;;;;;;5066233;28;20460;-73
2021/08/20 03:29:02;;;;;;;17.67;15.17;;;15.70;1.00;;;;;;5070126;28;20444;-73
2021/08/20 03:31:29;;;;;;;19.07;16.10;;;15.60;1.00;;;;;;5068669;28;20536;-73
2021/08/20 03:33:56;;;;;;;21.00;16.40;;;15.50;1.00;;;;;;5070624;28;20441;-73
2021/08/20 03:36:23;;;;;;;20.03;16.97;;;15.50;1.00;;;;;;5069927;28;20450;-73
2021/08/20 03:38:53;;;;;;;18.70;15.70;;;15.40;1.00;;;;;;5067392;28;20183;-73
2021/08/20 03:41:22;;;;;;;19.40;16.83;;;15.30;1.00;;;;;;5071356;28;20512;-74
2021/08/20 03:44:04;;;;;;;19.40;15.67;;;15.30;1.00;;;;;;5051030;28;20455;-73
2021/08/20 03:46:36;;;;;;;19.60;15.73;;;15.30;1.00;;;;;;5069045;28;20445;-73
2021/08/20 03:49:02;;;;;;;19.40;14.50;;;15.40;1.00;;;;;;5071047;28;21022;-73
2021/08/20 03:51:29;;;;;;;18.60;15.37;;;15.60;1.00;;;;;;5070584;28;20240;-75
2021/08/20 03:53:54;;;;;;;19.77;14.13;;;15.60;1.00;;;;;;5070560;28;20570;-73
2021/08/20 03:56:20;;;;;;;18.50;14.60;;;15.50;1.00;;;;;;5069575;28;20193;-73
2021/08/20 03:59:04;;;;;;;17.23;13.20;;;15.50;1.00;;;;;;5072480;28;20444;-74
2021/08/20 04:01:30;;;;;;;19.33;14.27;;;15.50;1.00;;;;;;5062050;28;20512;-73
2021/08/20 04:03:58;;;;;;;21.90;15.20;;;15.60;1.00;;;;;;5068630;28;20287;-74
2021/08/20 04:06:33;;;;;;;17.17;13.47;;;15.60;1.00;;;;;;5067449;28;20465;-73
2021/08/20 04:08:58;;;;;;;18.27;14.03;;;15.70;1.00;;;;;;5072260;28;20451;-74
2021/08/20 04:11:56;;;;;;;20.43;15.40;;;15.70;1.00;;;;;;5053848;28;20760;-73
2021/08/20 04:14:27;;;;;;;21.67;14.63;;;15.70;1.00;;;;;;5072857;28;21311;-74
2021/08/20 04:16:52;;;;;;;19.93;16.03;;;15.60;1.00;;;;;;5069154;28;20443;-74
2021/08/20 04:19:18;;;;;;;23.03;16.47;;;15.80;1.00;;;;;;5070456;28;20551;-74
2021/08/20 04:21:44;;;;;;;21.30;15.73;;;15.80;1.00;;;;;;5069903;28;20537;-73
2021/08/20 04:24:14;;;;;;;20.80;15.40;;;15.50;1.00;;;;;;5069422;28;20978;-73
2021/08/20 04:26:41;;;;;;;21.03;15.47;;;15.70;1.00;;;;;;5079702;28;20460;-74
2021/08/20 04:29:13;;;;;;;19.97;14.17;;;16.00;1.00;;;;;;5067615;28;20830;-74
2021/08/20 04:31:49;;;;;;;19.23;13.77;;;16.30;1.00;;;;;;5049115;28;20497;-73
2021/08/20 04:34:27;;;;;;;18.47;14.43;;;16.30;1.00;;;;;;5054603;28;20440;-74
2021/08/20 04:37:03;;;;;;;21.67;14.47;;;16.40;1.00;;;;;;5056904;28;20431;-74
2021/08/20 04:39:47;;;;;;;22.70;15.50;;;16.60;1.00;;;;;;5064716;28;20539;-74
2021/08/20 04:42:38;;;;;;;18.00;15.10;;;16.50;1.00;;;;;;5052787;28;20447;-74
2021/08/20 04:45:14;;;;;;;19.80;16.93;;;16.50;1.00;;;;;;5061846;28;20444;-75
2021/08/20 04:47:52;;;;;;;24.43;15.80;;;16.30;1.00;;;;;;5064770;28;20443;-73
2021/08/20 04:50:38;;;;;;;21.93;16.50;;;16.20;1.00;;;;;;5048313;28;20461;-73
2021/08/20 04:53:29;;;;;;;16.80;12.80;;;16.10;1.00;;;;;;5055846;28;20953;-73
2021/08/20 04:56:13;;;;;;;19.53;15.27;;;16.10;1.00;;;;;;5060103;28;20460;-74
2021/08/20 04:58:39;;;;;;;20.20;16.40;;;16.30;1.00;;;;;;5055484;28;20855;-73
2021/08/20 05:01:04;;;;;;;20.07;16.23;;;16.30;1.00;;;;;;5069348;28;20182;-73
2021/08/20 05:03:31;;;;;;;24.77;17.07;;;16.30;1.00;;;;;;5053690;28;20659;-74
2021/08/20 05:05:57;;;;;;;19.20;15.40;;;16.10;1.00;;;;;;5067263;28;20422;-73
2021/08/20 05:08:23;;;;;;;19.20;15.43;;;16.00;1.00;;;;;;5069257;28;20908;-73
2021/08/20 05:10:52;;;;;;;20.53;16.80;;;16.00;1.00;;;;;;5068888;28;20475;-74
2021/08/20 05:13:17;;;;;;;20.47;16.03;;;16.00;1.00;;;;;;5065211;28;20190;-73
2021/08/20 05:15:44;;;;;;;20.90;15.73;;;16.10;1.00;;;;;;5065852;28;20441;-73
2021/08/20 05:18:10;;;;;;;21.97;15.87;;;15.90;1.00;;;;;;5070668;28;20459;-73
2021/08/20 05:20:36;;;;;;;18.03;15.03;;;16.00;1.00;;;;;;5068074;28;20189;-73
2021/08/20 05:23:05;;;;;;;24.13;15.90;;;15.80;1.00;;;;;;5070159;28;20459;-72
2021/08/20 05:25:35;;;;;;;19.23;15.70;;;15.90;1.00;;;;;;5075845;28;20687;-73
2021/08/20 05:28:03;;;;;;;18.80;14.90;;;16.00;1.00;;;;;;5073705;28;20548;-73
2021/08/20 05:30:28;;;;;;;18.33;13.20;;;16.30;1.00;;;;;;5077089;28;20467;-73
2021/08/20 05:32:54;;;;;;;15.63;12.60;;;16.10;1.00;;;;;;5059230;28;20509;-73
2021/08/20 05:35:20;;;;;;;22.53;13.13;;;15.80;1.00;;;;;;5075007;28;20470;-73
2021/08/20 05:37:46;;;;;;;16.43;11.67;;;16.10;1.00;;;;;;5072763;28;20282;-73
2021/08/20 05:40:12;;;;;;;14.97;11.10;;;16.30;1.00;;;;;;5076812;28;20244;-73
2021/08/20 05:42:39;;;;;;;15.60;11.67;;;16.50;1.00;;;;;;5075660;28;20206;-73
2021/08/20 05:45:05;;;;;;;12.77;11.03;;;16.40;1.00;;;;;;5076267;28;20458;-73
2021/08/20 05:47:31;;;;;;;16.13;12.37;;;16.30;1.00;;;;;;5074424;28;20475;-74
2021/08/20 05:49:57;;;;;;;16.47;12.20;;;16.20;1.00;;;;;;5076001;28;21144;-73
2021/08/20 05:52:23;;;;;;;16.17;11.73;;;16.30;1.00;;;;;;5077361;28;20190;-73
2021/08/20 05:54:48;;;;;;;17.63;12.27;;;16.10;1.00;;;;;;5055261;28;20476;-73
2021/08/20 05:57:14;;;;;;;16.60;12.97;;;16.00;1.00;;;;;;5076835;28;20786;-72
2021/08/20 05:59:40;;;;;;;18.33;10.67;;;16.10;1.00;;;;;;5061643;28;20189;-72
2021/08/20 06:02:06;;;;;;;16.60;12.00;;;16.40;1.00;;;;;;5058620;28;20666;-72
2021/08/20 06:04:32;;;;;;;15.40;11.73;;;16.50;1.00;;;;;;5061570;28;20201;-73
2021/08/20 06:06:57;;;;;;;15.63;11.67;;;16.40;1.00;;;;;;5059344;28;20853;-73
2021/08/20 06:09:27;;;;;;;21.87;12.87;;;16.30;1.00;;;;;;5059760;28;20181;-72
2021/08/20 06:11:52;;;;;;;15.57;11.80;;;16.50;1.00;;;;;;5075064;28;20479;-72
2021/08/20 06:14:18;;;;;;;17.97;12.23;;;16.60;1.00;;;;;;5074039;28;20193;-73
2021/08/20 06:16:44;;;;;;;21.07;12.87;;;16.60;1.00;;;;;;5067211;28;20707;-72
2021/08/20 06:19:09;;;;;;;15.60;11.37;;;16.30;1.00;;;;;;5073275;28;20193;-72
2021/08/20 06:21:35;;;;;;;16.67;12.03;;;16.40;1.00;;;;;;5070087;28;20328;-72
2021/08/20 06:24:01;;;;;;;16.73;10.67;;;16.70;1.00;;;;;;5067661;28;22130;-73
2021/08/20 06:26:26;;;;;;;20.87;13.50;;;16.80;1.00;;;;;;5064048;28;20731;-73
2021/08/20 06:28:52;;;;;;;20.43;13.07;;;16.80;1.00;;;;;;5075022;28;20554;-73
2021/08/20 06:31:19;;;;;;;21.00;14.03;;;16.90;1.00;;;;;;5057283;28;20233;-72
2021/08/20 06:33:45;;;;;;;27.03;13.90;;;16.80;1.00;;;;;;5065809;28;21137;-73
2021/08/20 06:36:11;;;;;;;20.20;13.30;;;16.70;1.00;;;;;;5072640;28;20190;-73
2021/08/20 06:38:36;;;;;;;19.40;13.87;;;16.70;1.00;;;;;;5075839;28;20243;-73
2021/08/20 06:41:02;;;;;;;18.90;13.83;;;16.80;1.00;;;;;;5056791;28;20213;-73
2021/08/20 06:43:28;;;;;;;23.63;12.90;;;16.80;1.00;;;;;;5071320;28;20573;-73
2021/08/20 06:45:54;;;;;;;27.03;14.90;;;16.80;1.00;;;;;;5065339;28;20186;-73
2021/08/20 06:48:20;;;;;;;21.17;14.80;;;16.80;1.00;;;;;;5069611;28;20761;-73
2021/08/20 06:50:46;;;;;;;25.07;16.47;;;16.70;1.00;;;;;;5066372;28;20219;-73
2021/08/20 06:53:11;;;;;;;26.57;15.50;;;16.50;1.00;;;;;;5051671;28;20178;-73
2021/08/20 06:55:37;;;;;;;24.57;15.77;;;16.50;1.00;;;;;;5074522;28;20183;-72
2021/08/20 06:58:03;;;;;;;22.37;13.77;;;16.60;1.00;;;;;;5071378;28;20456;-73
2021/08/20 07:00:29;;;;;;;22.13;16.30;;;16.70;1.00;;;;;;5070362;28;20447;-73
2021/08/20 07:02:55;;;;;;;22.73;15.63;;;16.70;1.00;;;;;;5069505;28;20220;-73
2021/08/20 07:05:20;;;;;;;26.73;16.93;;;16.70;1.00;;;;;;5070733;28;20209;-73
2021/08/20 07:07:47;;;;;;;22.83;14.10;;;16.70;1.00;;;;;;5071838;28;20448;-73
2021/08/20 07:10:16;;;;;;;22.07;14.80;;;16.80;1.00;;;;;;5070856;28;20205;-73
2021/08/20 07:12:42;;;;;;;25.30;16.00;;;16.90;1.00;;;;;;5070034;28;20474;-73
2021/08/20 07:15:10;;;;;;;25.47;14.97;;;16.90;1.00;;;;;;5070691;28;20453;-73
2021/08/20 07:17:36;;;;;;;29.70;17.30;;;16.80;1.00;;;;;;5069455;28;20432;-73
2021/08/20 07:20:03;;;;;;;29.57;16.87;;;16.70;1.00;;;;;;5058283;28;21108;-73
2021/08/20 07:22:28;;;;;;;27.30;17.80;;;16.70;1.00;;;;;;5069937;28;20448;-73
2021/08/20 07:24:54;;;;;;;27.50;18.10;;;16.80;1.00;;;;;;5068137;28;20517;-73
2021/08/20 07:27:20;;;;;;;25.13;16.90;;;16.70;1.00;;;;;;5070375;28;20202;-73
2021/08/20 07:29:47;;;;;;;35.40;18.57;;;16.70;1.00;;;;;;5055162;28;20198;-72
2021/08/20 07:32:12;;;;;;;26.43;16.10;;;16.80;1.00;;;;;;5063278;28;20713;-72
2021/08/20 07:34:38;;;;;;;31.33;17.63;;;17.00;1.00;;;;;;5059498;28;20470;-72
2021/08/20 07:37:05;;;;;;;30.80;18.47;;;17.00;1.00;;;;;;5062620;28;20632;-72
2021/08/20 07:39:32;;;;;;;28.07;18.00;;;17.00;1.00;;;;;;5065703;28;21589;-72
2021/08/20 07:41:59;;;;;;;28.17;18.53;;;17.00;1.00;;;;;;5053836;28;21217;-72
2021/08/20 07:44:25;;;;;;;25.67;17.37;;;16.90;1.00;;;;;;5062700;28;20559;-72
2021/08/20 07:46:51;;;;;;;32.00;18.13;;;16.80;1.00;;;;;;5067896;28;20478;-72
2021/08/20 07:49:17;;;;;;;32.43;19.17;;;16.90;1.00;;;;;;5066003;28;20459;-72
2021/08/20 07:51:43;;;;;;;27.47;17.90;;;17.00;1.00;;;;;;5066247;28;20456;-73
2021/08/20 07:54:09;;;;;;;33.50;19.40;;;17.00;1.00;;;;;;5069702;28;20185;-73
2021/08/20 07:56:37;;;;;;;30.60;18.47;;;16.90;1.00;;;;;;5065233;28;20197;-72
2021/08/20 07:59:03;;;;;;;27.83;18.83;;;16.90;1.00;;;;;;5068078;28;20440;-72
2021/08/20 08:01:31;;;;;;;30.17;18.80;;;16.90;1.00;;;;;;5046030;28;21004;-73
2021/08/20 08:03:57;;;;;;;31.20;18.70;;;17.00;1.00;;;;;;5068249;28;20902;-73
2021/08/20 08:06:24;;;;;;;27.23;17.20;;;17.10;1.00;;;;;;5066629;28;20257;-73
2021/08/20 08:08:50;;;;;;;27.20;18.33;;;17.20;1.00;;;;;;5070110;28;20447;-73
2021/08/20 08:11:16;;;;;;;28.07;18.07;;;17.20;1.00;;;;;;5071126;28;20977;-74
2021/08/20 08:13:42;;;;;;;31.37;18.63;;;17.30;1.00;;;;;;5068195;28;20481;-73
2021/08/20 08:16:08;;;;;;;24.00;17.57;;;17.40;1.00;;;;;;5063149;28;20212;-73
2021/08/20 08:18:34;;;;;;;28.07;18.20;;;17.50;1.00;;;;;;5068275;28;20462;-73
2021/08/20 08:20:59;;;;;;;28.77;18.03;;;17.50;1.00;;;;;;5067695;28;20949;-73
2021/08/20 08:23:25;;;;;;;21.60;16.67;;;17.50;1.00;;;;;;5068533;28;20730;-73
2021/08/20 08:25:53;;;;;;;25.83;17.47;;;17.60;1.00;;;;;;5063461;28;20181;-73
2021/08/20 08:28:22;;;;;;;24.77;17.40;;;17.60;1.00;;;;;;5066728;28;20608;-73
2021/08/20 08:30:49;;;;;;;24.13;18.83;;;17.70;1.00;;;;;;5064586;28;20554;-73
2021/08/20 08:33:17;;;;;;;25.93;17.60;;;17.70;1.00;;;;;;5071770;28;20450;-74
2021/08/20 08:35:43;;;;;;;20.90;16.73;;;17.70;1.00;;;;;;5074007;28;20516;-73
2021/08/20 08:38:11;;;;;;;27.40;17.73;;;17.80;1.00;;;;;;5072671;28;22751;-73
2021/08/20 08:40:39;;;;;;;27.07;19.27;;;18.10;1.00;;;;;;5076543;28;20451;-74
2021/08/20 08:43:07;;;;;;;23.40;17.80;;;18.40;1.00;;;;;;5055869;28;20457;-73
2021/08/20 08:45:34;;;;;;;26.73;17.17;;;18.50;1.00;;;;;;5074190;28;21053;-73
2021/08/20 08:48:05;;;;;;;22.23;17.17;;;18.50;1.00;;;;;;5079319;28;20454;-73
2021/08/20 08:50:32;;;;;;;30.10;16.47;;;18.50;1.00;;;;;;5068462;28;20493;-73
2021/08/20 08:52:57;;;;;;;20.70;16.43;;;18.60;1.00;;;;;;5066917;28;20530;-73
2021/08/20 08:55:23;;;;;;;23.93;15.13;;;18.60;1.00;;;;;;5069882;28;20499;-73
2021/08/20 08:57:49;;;;;;;20.03;14.47;;;18.60;1.00;;;;;;5066015;28;20258;-74
2021/08/20 09:00:34;;;;;;;20.60;16.10;;;18.60;1.00;;;;;;5066888;28;21097;-73
2021/08/20 09:03:03;;;;;;;19.40;15.00;;;18.60;1.00;;;;;;5062366;28;20797;-73
2021/08/20 09:05:44;;;;;;;18.77;14.90;;;18.50;1.00;;;;;;5066792;28;20444;-73
2021/08/20 09:08:12;;;;;;;17.80;14.23;;;18.70;1.00;;;;;;5065544;28;21201;-73
2021/08/20 09:10:56;;;;;;;16.20;13.77;;;18.70;1.00;;;;;;5073114;28;22449;-73
2021/08/20 09:13:24;;;;;;;16.03;13.60;;;18.70;1.00;;;;;;5070532;28;23387;-73
2021/08/20 09:16:10;;;;;;;13.60;11.70;;;18.60;1.00;;;;;;5068138;28;20464;-73
2021/08/20 09:18:37;;;;;;;14.47;10.20;;;18.80;1.00;;;;;;5066813;28;20455;-73
2021/08/20 09:21:04;;;;;;;14.50;12.50;;;19.10;1.00;;;;;;5070571;28;20440;-73
2021/08/20 09:23:30;;;;;;;13.33;10.77;;;19.30;1.00;;;;;;5069661;28;20534;-73
2021/08/20 09:25:57;;;;;;;12.77;10.87;;;19.50;1.00;;;;;;5078668;28;20486;-73
2021/08/20 09:28:30;;;;;;;13.10;11.67;;;19.40;1.00;;;;;;5072985;28;20582;-72
2021/08/20 09:30:56;;;;;;;14.40;11.90;;;19.40;1.00;;;;;;5071882;28;20469;-73
2021/08/20 09:33:23;;;;;;;16.63;13.60;;;19.50;1.00;;;;;;5074120;28;20444;-73
2021/08/20 09:36:00;;;;;;;15.77;11.53;;;19.60;1.00;;;;;;5070738;28;20182;-73
2021/08/20 09:38:28;;;;;;;10.80;9.10;;;19.80;1.00;;;;;;5074231;28;21276;-73
2021/08/20 09:40:59;;;;;;;10.03;8.30;;;19.90;1.00;;;;;;5077254;28;20446;-73
2021/08/20 09:43:31;;;;;;;9.53;8.13;;;20.00;1.00;;;;;;5073039;28;20456;-73
2021/08/20 09:45:59;;;;;;;9.87;8.10;;;20.00;1.00;;;;;;5069389;28;20440;-73
2021/08/20 09:48:43;;;;;;;10.30;8.57;;;20.10;1.00;;;;;;5068615;28;21209;-73
2021/08/20 09:51:11;;;;;;;9.63;8.63;;;20.20;1.00;;;;;;5060406;28;20557;-73
2021/08/20 09:53:37;;;;;;;8.70;7.70;;;20.20;1.00;;;;;;5069943;28;20440;-73
2021/08/20 09:56:04;;;;;;;10.63;7.70;;;20.20;1.00;;;;;;5072832;28;20443;-73
2021/08/20 09:58:34;;;;;;;13.17;7.73;;;20.20;1.00;;;;;;5070614;28;20209;-73
2021/08/20 10:01:01;;;;;;;9.40;6.57;;;20.50;1.00;;;;;;5068356;28;20517;-73
2021/08/20 10:03:28;;;;;;;10.00;7.40;;;20.70;1.00;;;;;;5063251;28;20803;-73
2021/08/20 10:05:55;;;;;;;9.20;6.60;;;20.80;1.00;;;;;;5066396;28;21492;-73
2021/08/20 10:08:21;;;;;;;9.27;6.33;;;20.80;1.00;;;;;;5069312;28;20974;-73
2021/08/20 10:10:49;;;;;;;5.30;4.80;;;21.10;1.00;;;;;;5066801;28;20499;-73
2021/08/20 10:13:16;;;;;;;7.47;4.57;;;21.10;1.00;;;;;;5068544;28;20819;-73
2021/08/20 10:15:43;;;;;;;6.23;4.03;;;21.00;1.00;;;;;;5067575;28;20435;-73
2021/08/20 10:18:12;;;;;;;5.53;4.23;;;20.90;1.00;;;;;;5066154;28;20443;-73
2021/08/20 10:20:39;;;;;;;7.10;4.27;;;21.00;1.00;;;;;;5059927;28;20573;-73
2021/08/20 10:23:05;;;;;;;6.90;4.07;;;20.80;1.00;;;;;;5058817;28;20456;-73
2021/08/20 10:25:32;;;;;;;7.17;4.73;;;21.10;1.00;;;;;;5066138;28;20506;-74
2021/08/20 10:27:59;;;;;;;6.83;4.23;;;21.00;1.00;;;;;;5060536;28;20459;-74
2021/08/20 10:30:26;;;;;;;4.97;4.20;;;21.10;1.00;;;;;;5068329;28;20475;-73
2021/08/20 10:33:00;;;;;;;5.37;3.77;;;21.20;1.00;;;;;;5068385;28;20451;-73
2021/08/20 10:35:52;;;;;;;5.00;3.17;;;21.00;1.00;;;;;;5067855;28;20436;-73
2021/08/20 10:38:42;;;;;;;5.77;3.07;;;20.80;1.00;;;;;;5064743;28;20451;-73
2021/08/20 10:41:19;;;;;;;9.13;4.70;;;20.50;1.00;;;;;;5057930;28;20541;-73
2021/08/20 10:43:57;;;;;;;7.90;5.10;;;20.30;1.00;;;;;;5068813;28;21092;-73
2021/08/20 10:46:32;;;;;;;7.67;4.27;;;20.30;1.00;;;;;;5035529;28;20440;-73
2021/08/20 10:49:21;;;;;;;4.40;3.97;;;20.20;1.00;;;;;;5070303;28;20435;-73
2021/08/20 10:51:53;;;;;;;4.70;3.10;;;20.20;1.00;;;;;;5072435;28;21155;-73
2021/08/20 10:54:24;;;;;;;3.40;2.67;;;20.10;1.00;;;;;;5068917;28;20470;-73
2021/08/20 10:56:51;;;;;;;3.23;2.30;;;20.00;1.00;;;;;;5068661;28;20464;-73
2021/08/20 10:59:35;;;;;;;3.43;2.70;;;20.00;1.00;;;;;;5068060;28;20447;-73
2021/08/20 11:02:19;;;;;;;3.60;2.57;;;20.00;1.00;;;;;;5065991;28;20443;-73
2021/08/20 11:05:03;;;;;;;5.37;2.47;;;19.80;1.00;;;;;;5064644;28;20882;-73
2021/08/20 11:07:34;;;;;;;10.43;4.30;;;19.70;1.00;;;;;;5066473;28;20462;-73
2021/08/20 11:10:20;;;;;;;6.77;4.73;;;19.60;1.00;;;;;;5069383;28;21192;-73
2021/08/20 11:12:47;;;;;;;4.53;4.13;;;19.50;1.00;;;;;;5061192;28;20524;-73
2021/08/20 11:15:25;;;;;;;4.73;4.20;;;19.40;1.00;;;;;;5064410;28;21657;-73
2021/08/20 11:17:59;;;;;;;5.43;4.93;;;19.20;1.00;;;;;;5063759;28;21409;-73
2021/08/20 11:20:38;;;;;;;5.10;4.60;;;19.10;1.00;;;;;;5068436;28;20465;-73
2021/08/20 11:23:13;;;;;;;6.60;5.90;;;18.90;1.00;;;;;;5062091;28;21430;-73
2021/08/20 11:25:39;;;;;;;6.20;5.60;;;18.80;1.00;;;;;;5065392;28;20968;-73
2021/08/20 11:28:22;;;;;;;6.93;5.60;;;18.80;1.00;;;;;;5069128;28;20474;-72
2021/08/20 11:31:08;;;;;;;10.20;5.63;;;18.80;1.00;;;;;;5064478;28;20562;-73
2021/08/20 11:33:40;;;;;;;6.10;5.30;;;19.00;1.00;;;;;;5065639;28;20463;-72
2021/08/20 11:36:09;;;;;;;5.63;5.03;;;18.90;1.00;;;;;;5067748;28;21098;-72
2021/08/20 11:38:41;;;;;;;6.23;5.50;;;18.90;1.00;;;;;;5067892;28;20932;-73
2021/08/20 11:41:35;;;;;;;7.03;5.23;;;19.00;1.00;;;;;;5062405;28;20455;-73
2021/08/20 11:44:06;;;;;;;5.13;4.63;;;19.10;1.00;;;;;;5063463;28;20496;-73
2021/08/20 11:46:40;;;;;;;6.23;5.63;;;18.90;1.00;;;;;;5065310;28;20970;-73
2021/08/20 11:49:08;;;;;;;7.70;6.37;;;18.90;1.00;;;;;;5067601;28;20454;-73
2021/08/20 11:51:39;;;;;;;7.17;6.27;;;19.00;1.00;;;;;;5064465;28;20484;-73
2021/08/20 11:54:07;;;;;;;4.50;4.07;;;18.90;1.00;;;;;;5065508;28;20448;-73
2021/08/20 11:56:34;;;;;;;6.27;4.10;;;19.00;1.00;;;;;;5069327;28;20544;-73
2021/08/20 11:59:08;;;;;;;3.33;3.03;;;19.20;1.00;;;;;;5070186;28;20465;-73
2021/08/20 12:01:37;;;;;;;4.80;4.07;;;19.40;1.00;;;;;;5065818;28;20460;-74
2021/08/20 12:04:04;;;;;;;9.90;4.37;;;19.40;1.00;;;;;;5063637;28;20451;-72
2021/08/20 12:06:30;;;;;;;4.13;3.73;;;19.30;1.00;;;;;;5063954;28;20466;-72
2021/08/20 12:09:18;;;;;;;4.00;3.30;;;19.30;1.00;;;;;;5067450;28;20448;-73
2021/08/20 12:11:49;;;;;;;4.10;3.40;;;19.60;1.00;;;;;;5066786;28;20982;-73
2021/08/20 12:14:21;;;;;;;3.70;3.03;;;19.90;1.00;;;;;;5057974;28;20440;-73
2021/08/20 12:16:54;;;;;;;4.17;2.87;;;20.00;1.00;;;;;;5066330;28;20557;-73
2021/08/20 12:19:26;;;;;;;3.70;2.90;;;19.90;1.00;;;;;;5065310;28;21009;-72
2021/08/20 12:22:03;;;;;;;4.03;2.60;;;19.80;1.00;;;;;;5059809;28;20510;-73
2021/08/20 12:24:35;;;;;;;7.83;3.20;;;19.60;1.00;;;;;;5064188;28;20443;-73
2021/08/20 12:27:25;;;;;;;5.50;3.67;;;19.70;1.00;;;;;;5064544;28;20491;-73
2021/08/20 12:30:00;;;;;;;3.37;3.00;;;19.60;1.00;;;;;;5063730;28;20464;-73
2021/08/20 12:32:34;;;;;;;2.40;2.20;;;19.60;1.00;;;;;;5062462;28;20892;-72
2021/08/20 12:35:03;;;;;;;3.30;2.60;;;19.70;1.00;;;;;;5052246;28;20448;-73
2021/08/20 12:37:30;;;;;;;3.33;3.03;;;19.80;1.00;;;;;;5065407;28;20938;-73
2021/08/20 12:40:13;;;;;;;8.70;3.30;;;19.70;1.00;;;;;;5067112;28;20530;-73
2021/08/20 12:42:50;;;;;;;4.80;3.77;;;19.70;1.00;;;;;;5065374;28;21008;-73
2021/08/20 12:45:20;;;;;;;3.70;2.63;;;19.60;1.00;;;;;;5064319;28;20440;-72
2021/08/20 12:48:02;;;;;;;4.00;2.70;;;19.60;1.00;;;;;;5045562;28;20444;-72
2021/08/20 12:50:28;;;;;;;2.63;2.40;;;19.60;1.00;;;;;;5067333;28;20468;-72
2021/08/20 12:53:27;;;;;;;2.90;2.53;;;19.60;1.00;;;;;;5065946;28;20470;-72
2021/08/20 12:55:52;;;;;;;3.73;2.20;;;19.90;1.00;;;;;;5066569;28;20448;-72